sensor_id;sensor_type;location;lat;lon;timestamp;P1;durP1;ratioP1;P2;durP2;ratioP2
21301;SDS011;10810;48.270;9.996;2023-02-21T00:00:01;9.30;;;3.33;;
21301;SDS011;10810;48.270;9.996;2023-02-21T00:02:46;9.17;;;3.93;;
21301;SDS011;10810;48.270;9.996;2023-02-21T00:05:32;11.70;;;4.13;;
21301;SDS011;10810;48.270;9.996;2023-02-21T00:08:16;9.80;;;3.50;;
21301;SDS011;10810;48.270;9.996;2023-02-21T00:11:01;10.37;;;3.13;;
21301;SDS011;10810;48.270;9.996;2023-02-21T00:13:45;9.53;;;3.57;;
21301;SDS011;10810;48.270;9.996;2023-02-21T00:16:30;10.13;;;3.47;;
21301;SDS011;10810;48.270;9.996;2023-02-21T00:19:14;10.30;;;3.83;;
21301;SDS011;10810;48.270;9.996;2023-02-21T00:22:00;7.93;;;3.30;;
21301;SDS011;10810;48.270;9.996;2023-02-21T00:24:44;11.83;;;4.03;;
21301;SDS011;10810;48.270;9.996;2023-02-21T00:27:31;13.30;;;3.70;;
21301;SDS011;10810;48.270;9.996;2023-02-21T00:30:15;9.20;;;3.50;;
21301;SDS011;10810;48.270;9.996;2023-02-21T00:33:00;7.00;;;3.23;;
21301;SDS011;10810;48.270;9.996;2023-02-21T00:35:44;8.60;;;3.27;;
21301;SDS011;10810;48.270;9.996;2023-02-21T00:38:30;8.90;;;3.20;;
21301;SDS011;10810;48.270;9.996;2023-02-21T00:41:14;10.03;;;3.70;;
21301;SDS011;10810;48.270;9.996;2023-02-21T00:44:01;8.17;;;3.10;;
21301;SDS011;10810;48.270;9.996;2023-02-21T00:46:45;7.60;;;3.30;;
21301;SDS011;10810;48.270;9.996;2023-02-21T00:49:30;7.93;;;2.93;;
21301;SDS011;10810;48.270;9.996;2023-02-21T00:52:14;7.33;;;3.17;;
21301;SDS011;10810;48.270;9.996;2023-02-21T00:55:00;10.10;;;2.97;;
21301;SDS011;10810;48.270;9.996;2023-02-21T00:57:44;10.37;;;3.60;;
21301;SDS011;10810;48.270;9.996;2023-02-21T01:00:30;7.20;;;2.93;;
21301;SDS011;10810;48.270;9.996;2023-02-21T01:03:15;7.13;;;2.80;;
21301;SDS011;10810;48.270;9.996;2023-02-21T01:05:59;7.27;;;2.80;;
21301;SDS011;10810;48.270;9.996;2023-02-21T01:08:44;7.33;;;2.97;;
21301;SDS011;10810;48.270;9.996;2023-02-21T01:11:31;7.30;;;3.20;;
21301;SDS011;10810;48.270;9.996;2023-02-21T01:14:16;7.00;;;2.93;;
21301;SDS011;10810;48.270;9.996;2023-02-21T01:17:01;9.30;;;2.87;;
21301;SDS011;10810;48.270;9.996;2023-02-21T01:19:45;7.27;;;2.80;;
21301;SDS011;10810;48.270;9.996;2023-02-21T01:22:30;8.30;;;3.13;;
21301;SDS011;10810;48.270;9.996;2023-02-21T01:25:15;7.90;;;3.10;;
21301;SDS011;10810;48.270;9.996;2023-02-21T01:28:01;9.07;;;2.97;;
21301;SDS011;10810;48.270;9.996;2023-02-21T01:30:46;10.57;;;3.53;;
21301;SDS011;10810;48.270;9.996;2023-02-21T01:33:33;9.83;;;3.37;;
21301;SDS011;10810;48.270;9.996;2023-02-21T01:36:19;7.57;;;3.10;;
21301;SDS011;10810;48.270;9.996;2023-02-21T01:39:03;7.57;;;3.37;;
21301;SDS011;10810;48.270;9.996;2023-02-21T01:41:48;6.83;;;2.93;;
21301;SDS011;10810;48.270;9.996;2023-02-21T01:44:35;10.53;;;3.20;;
21301;SDS011;10810;48.270;9.996;2023-02-21T01:47:22;7.93;;;3.10;;
21301;SDS011;10810;48.270;9.996;2023-02-21T01:50:08;7.13;;;3.10;;
21301;SDS011;10810;48.270;9.996;2023-02-21T01:52:56;7.67;;;2.90;;
21301;SDS011;10810;48.270;9.996;2023-02-21T01:55:42;6.60;;;3.07;;
21301;SDS011;10810;48.270;9.996;2023-02-21T01:58:28;6.03;;;2.57;;
21301;SDS011;10810;48.270;9.996;2023-02-21T02:01:18;8.17;;;2.90;;
21301;SDS011;10810;48.270;9.996;2023-02-21T02:04:10;8.73;;;2.97;;
21301;SDS011;10810;48.270;9.996;2023-02-21T02:06:55;7.30;;;2.80;;
21301;SDS011;10810;48.270;9.996;2023-02-21T02:09:40;9.33;;;3.00;;
21301;SDS011;10810;48.270;9.996;2023-02-21T02:12:30;12.53;;;3.13;;
21301;SDS011;10810;48.270;9.996;2023-02-21T02:15:14;7.80;;;3.00;;
21301;SDS011;10810;48.270;9.996;2023-02-21T02:17:58;8.10;;;3.17;;
21301;SDS011;10810;48.270;9.996;2023-02-21T02:20:44;8.63;;;3.10;;
21301;SDS011;10810;48.270;9.996;2023-02-21T02:23:29;6.97;;;2.93;;
21301;SDS011;10810;48.270;9.996;2023-02-21T02:26:30;8.17;;;2.90;;
21301;SDS011;10810;48.270;9.996;2023-02-21T02:29:23;8.80;;;3.30;;
21301;SDS011;10810;48.270;9.996;2023-02-21T02:35:05;7.47;;;2.87;;
21301;SDS011;10810;48.270;9.996;2023-02-21T02:37:39;8.73;;;3.20;;
21301;SDS011;10810;48.270;9.996;2023-02-21T02:40:24;8.43;;;2.80;;
21301;SDS011;10810;48.270;9.996;2023-02-21T02:43:02;9.37;;;3.00;;
21301;SDS011;10810;48.270;9.996;2023-02-21T02:45:57;7.27;;;2.97;;
21301;SDS011;10810;48.270;9.996;2023-02-21T02:48:33;7.50;;;2.73;;
21301;SDS011;10810;48.270;9.996;2023-02-21T02:51:06;7.93;;;3.10;;
21301;SDS011;10810;48.270;9.996;2023-02-21T02:53:38;8.80;;;3.13;;
21301;SDS011;10810;48.270;9.996;2023-02-21T02:56:33;11.03;;;3.37;;
21301;SDS011;10810;48.270;9.996;2023-02-21T02:59:05;7.37;;;3.17;;
21301;SDS011;10810;48.270;9.996;2023-02-21T03:01:58;7.07;;;2.83;;
21301;SDS011;10810;48.270;9.996;2023-02-21T03:05:06;5.83;;;2.83;;
21301;SDS011;10810;48.270;9.996;2023-02-21T03:08:11;7.57;;;3.07;;
21301;SDS011;10810;48.270;9.996;2023-02-21T03:10:57;7.70;;;3.03;;
21301;SDS011;10810;48.270;9.996;2023-02-21T03:13:42;9.53;;;4.07;;
21301;SDS011;10810;48.270;9.996;2023-02-21T03:16:17;11.83;;;3.37;;
21301;SDS011;10810;48.270;9.996;2023-02-21T03:18:55;8.67;;;3.50;;
21301;SDS011;10810;48.270;9.996;2023-02-21T03:21:33;10.87;;;3.57;;
21301;SDS011;10810;48.270;9.996;2023-02-21T03:24:20;9.37;;;3.30;;
21301;SDS011;10810;48.270;9.996;2023-02-21T03:27:10;10.87;;;3.43;;
21301;SDS011;10810;48.270;9.996;2023-02-21T03:30:21;8.43;;;3.83;;
21301;SDS011;10810;48.270;9.996;2023-02-21T03:33:08;12.13;;;4.20;;
21301;SDS011;10810;48.270;9.996;2023-02-21T03:35:38;10.97;;;3.67;;
21301;SDS011;10810;48.270;9.996;2023-02-21T03:38:07;9.77;;;3.70;;
21301;SDS011;10810;48.270;9.996;2023-02-21T03:43:53;11.63;;;3.80;;
21301;SDS011;10810;48.270;9.996;2023-02-21T03:46:20;11.50;;;4.03;;
21301;SDS011;10810;48.270;9.996;2023-02-21T03:48:50;11.47;;;4.10;;
21301;SDS011;10810;48.270;9.996;2023-02-21T03:54:38;11.00;;;3.70;;
21301;SDS011;10810;48.270;9.996;2023-02-21T03:57:09;11.83;;;3.87;;
21301;SDS011;10810;48.270;9.996;2023-02-21T03:59:39;9.93;;;3.97;;
21301;SDS011;10810;48.270;9.996;2023-02-21T04:02:31;9.77;;;3.60;;
21301;SDS011;10810;48.270;9.996;2023-02-21T04:05:52;12.73;;;3.60;;
21301;SDS011;10810;48.270;9.996;2023-02-21T04:08:14;7.80;;;3.30;;
21301;SDS011;10810;48.270;9.996;2023-02-21T04:13:47;7.23;;;3.17;;
21301;SDS011;10810;48.270;9.996;2023-02-21T04:16:23;10.20;;;3.17;;
21301;SDS011;10810;48.270;9.996;2023-02-21T04:19:04;10.60;;;3.50;;
21301;SDS011;10810;48.270;9.996;2023-02-21T04:21:46;7.83;;;2.80;;
21301;SDS011;10810;48.270;9.996;2023-02-21T04:24:23;8.10;;;3.10;;
21301;SDS011;10810;48.270;9.996;2023-02-21T04:27:05;11.73;;;3.67;;
21301;SDS011;10810;48.270;9.996;2023-02-21T04:29:46;7.57;;;3.20;;
21301;SDS011;10810;48.270;9.996;2023-02-21T04:32:22;13.40;;;3.60;;
21301;SDS011;10810;48.270;9.996;2023-02-21T04:35:19;15.10;;;4.13;;
21301;SDS011;10810;48.270;9.996;2023-02-21T04:37:46;8.73;;;3.47;;
21301;SDS011;10810;48.270;9.996;2023-02-21T04:40:21;11.37;;;3.67;;
21301;SDS011;10810;48.270;9.996;2023-02-21T04:42:56;8.00;;;3.43;;
21301;SDS011;10810;48.270;9.996;2023-02-21T04:45:26;9.17;;;3.43;;
21301;SDS011;10810;48.270;9.996;2023-02-21T04:48:01;13.50;;;4.17;;
21301;SDS011;10810;48.270;9.996;2023-02-21T04:50:47;10.10;;;4.27;;
21301;SDS011;10810;48.270;9.996;2023-02-21T04:56:32;8.17;;;3.67;;
21301;SDS011;10810;48.270;9.996;2023-02-21T04:59:14;10.07;;;3.73;;
21301;SDS011;10810;48.270;9.996;2023-02-21T05:01:47;11.27;;;3.80;;
21301;SDS011;10810;48.270;9.996;2023-02-21T05:04:23;10.10;;;4.20;;
21301;SDS011;10810;48.270;9.996;2023-02-21T05:07:08;9.53;;;3.50;;
21301;SDS011;10810;48.270;9.996;2023-02-21T05:10:14;7.70;;;3.50;;
21301;SDS011;10810;48.270;9.996;2023-02-21T05:12:32;10.30;;;2.87;;
21301;SDS011;10810;48.270;9.996;2023-02-21T05:14:59;10.20;;;3.20;;
21301;SDS011;10810;48.270;9.996;2023-02-21T05:17:27;8.50;;;3.23;;
21301;SDS011;10810;48.270;9.996;2023-02-21T05:20:03;7.90;;;3.10;;
21301;SDS011;10810;48.270;9.996;2023-02-21T05:22:49;7.73;;;2.93;;
21301;SDS011;10810;48.270;9.996;2023-02-21T05:25:44;8.13;;;3.07;;
21301;SDS011;10810;48.270;9.996;2023-02-21T05:28:14;8.00;;;2.87;;
21301;SDS011;10810;48.270;9.996;2023-02-21T05:31:04;8.47;;;3.50;;
21301;SDS011;10810;48.270;9.996;2023-02-21T05:33:43;8.97;;;3.20;;
21301;SDS011;10810;48.270;9.996;2023-02-21T05:36:25;11.07;;;3.23;;
21301;SDS011;10810;48.270;9.996;2023-02-21T05:39:26;9.27;;;3.60;;
21301;SDS011;10810;48.270;9.996;2023-02-21T05:41:56;7.30;;;3.27;;
21301;SDS011;10810;48.270;9.996;2023-02-21T05:44:39;9.60;;;3.47;;
21301;SDS011;10810;48.270;9.996;2023-02-21T05:47:13;10.03;;;3.73;;
21301;SDS011;10810;48.270;9.996;2023-02-21T05:49:52;9.20;;;3.77;;
21301;SDS011;10810;48.270;9.996;2023-02-21T05:52:26;12.80;;;3.87;;
21301;SDS011;10810;48.270;9.996;2023-02-21T05:54:53;8.57;;;3.43;;
21301;SDS011;10810;48.270;9.996;2023-02-21T05:57:20;9.23;;;4.00;;
21301;SDS011;10810;48.270;9.996;2023-02-21T05:59:48;8.93;;;3.40;;
21301;SDS011;10810;48.270;9.996;2023-02-21T06:02:30;7.33;;;3.10;;
21301;SDS011;10810;48.270;9.996;2023-02-21T06:05:12;6.07;;;2.77;;
21301;SDS011;10810;48.270;9.996;2023-02-21T06:07:43;10.23;;;3.53;;
21301;SDS011;10810;48.270;9.996;2023-02-21T06:10:12;9.57;;;3.57;;
21301;SDS011;10810;48.270;9.996;2023-02-21T06:12:54;9.63;;;3.53;;
21301;SDS011;10810;48.270;9.996;2023-02-21T06:15:35;9.57;;;3.43;;
21301;SDS011;10810;48.270;9.996;2023-02-21T06:18:14;9.97;;;3.90;;
21301;SDS011;10810;48.270;9.996;2023-02-21T06:20:45;10.87;;;3.80;;
21301;SDS011;10810;48.270;9.996;2023-02-21T06:23:17;11.20;;;3.47;;
21301;SDS011;10810;48.270;9.996;2023-02-21T06:25:47;7.70;;;3.23;;
21301;SDS011;10810;48.270;9.996;2023-02-21T06:28:14;9.27;;;3.80;;
21301;SDS011;10810;48.270;9.996;2023-02-21T06:30:47;10.20;;;3.17;;
21301;SDS011;10810;48.270;9.996;2023-02-21T06:33:16;10.47;;;3.50;;
21301;SDS011;10810;48.270;9.996;2023-02-21T06:35:52;9.67;;;3.30;;
21301;SDS011;10810;48.270;9.996;2023-02-21T06:38:23;13.03;;;3.97;;
21301;SDS011;10810;48.270;9.996;2023-02-21T06:40:50;11.43;;;4.07;;
21301;SDS011;10810;48.270;9.996;2023-02-21T06:43:20;9.93;;;3.70;;
21301;SDS011;10810;48.270;9.996;2023-02-21T06:45:47;9.93;;;3.70;;
21301;SDS011;10810;48.270;9.996;2023-02-21T06:48:14;11.77;;;3.33;;
21301;SDS011;10810;48.270;9.996;2023-02-21T06:50:42;11.60;;;3.30;;
21301;SDS011;10810;48.270;9.996;2023-02-21T06:53:12;7.23;;;3.73;;
21301;SDS011;10810;48.270;9.996;2023-02-21T06:55:44;10.47;;;4.27;;
21301;SDS011;10810;48.270;9.996;2023-02-21T06:58:23;10.07;;;3.73;;
21301;SDS011;10810;48.270;9.996;2023-02-21T07:00:52;13.13;;;4.07;;
21301;SDS011;10810;48.270;9.996;2023-02-21T07:03:30;13.20;;;3.70;;
21301;SDS011;10810;48.270;9.996;2023-02-21T07:05:57;7.83;;;3.30;;
21301;SDS011;10810;48.270;9.996;2023-02-21T07:08:29;11.53;;;3.80;;
21301;SDS011;10810;48.270;9.996;2023-02-21T07:11:01;13.30;;;4.90;;
21301;SDS011;10810;48.270;9.996;2023-02-21T07:13:29;11.73;;;4.23;;
21301;SDS011;10810;48.270;9.996;2023-02-21T07:15:58;13.13;;;4.07;;
21301;SDS011;10810;48.270;9.996;2023-02-21T07:18:25;10.57;;;3.80;;
21301;SDS011;10810;48.270;9.996;2023-02-21T07:20:52;10.17;;;4.07;;
21301;SDS011;10810;48.270;9.996;2023-02-21T07:23:36;9.27;;;3.67;;
21301;SDS011;10810;48.270;9.996;2023-02-21T07:26:07;8.90;;;3.70;;
21301;SDS011;10810;48.270;9.996;2023-02-21T07:28:35;8.87;;;4.03;;
21301;SDS011;10810;48.270;9.996;2023-02-21T07:31:03;11.63;;;4.30;;
21301;SDS011;10810;48.270;9.996;2023-02-21T07:33:33;11.60;;;4.23;;
21301;SDS011;10810;48.270;9.996;2023-02-21T07:36:12;10.63;;;3.67;;
21301;SDS011;10810;48.270;9.996;2023-02-21T07:41:32;8.97;;;3.83;;
21301;SDS011;10810;48.270;9.996;2023-02-21T07:44:24;9.00;;;3.63;;
21301;SDS011;10810;48.270;9.996;2023-02-21T07:47:04;7.73;;;3.50;;
21301;SDS011;10810;48.270;9.996;2023-02-21T07:49:35;11.43;;;4.20;;
21301;SDS011;10810;48.270;9.996;2023-02-21T07:52:04;11.77;;;4.37;;
21301;SDS011;10810;48.270;9.996;2023-02-21T07:57:38;10.40;;;4.03;;
21301;SDS011;10810;48.270;9.996;2023-02-21T08:00:17;15.07;;;5.27;;
21301;SDS011;10810;48.270;9.996;2023-02-21T08:02:49;14.07;;;5.40;;
21301;SDS011;10810;48.270;9.996;2023-02-21T08:05:30;9.73;;;4.50;;
21301;SDS011;10810;48.270;9.996;2023-02-21T08:08:02;14.30;;;5.17;;
21301;SDS011;10810;48.270;9.996;2023-02-21T08:10:45;13.67;;;4.97;;
21301;SDS011;10810;48.270;9.996;2023-02-21T08:13:16;18.77;;;6.07;;
21301;SDS011;10810;48.270;9.996;2023-02-21T08:16:05;14.63;;;5.70;;
21301;SDS011;10810;48.270;9.996;2023-02-21T08:18:36;17.77;;;6.13;;
21301;SDS011;10810;48.270;9.996;2023-02-21T08:21:17;17.67;;;6.47;;
21301;SDS011;10810;48.270;9.996;2023-02-21T08:23:50;16.90;;;6.93;;
21301;SDS011;10810;48.270;9.996;2023-02-21T08:26:23;17.60;;;6.47;;
21301;SDS011;10810;48.270;9.996;2023-02-21T08:28:56;11.60;;;4.87;;
21301;SDS011;10810;48.270;9.996;2023-02-21T08:31:41;12.90;;;5.47;;
21301;SDS011;10810;48.270;9.996;2023-02-21T08:34:12;15.00;;;5.83;;
21301;SDS011;10810;48.270;9.996;2023-02-21T08:36:40;14.30;;;5.70;;
21301;SDS011;10810;48.270;9.996;2023-02-21T08:39:09;13.63;;;5.30;;
21301;SDS011;10810;48.270;9.996;2023-02-21T08:41:44;11.83;;;4.80;;
21301;SDS011;10810;48.270;9.996;2023-02-21T08:44:15;12.03;;;4.60;;
21301;SDS011;10810;48.270;9.996;2023-02-21T08:46:46;14.07;;;4.77;;
21301;SDS011;10810;48.270;9.996;2023-02-21T08:49:14;14.70;;;5.20;;
21301;SDS011;10810;48.270;9.996;2023-02-21T08:51:43;11.43;;;4.60;;
21301;SDS011;10810;48.270;9.996;2023-02-21T08:54:46;13.27;;;4.77;;
21301;SDS011;10810;48.270;9.996;2023-02-21T08:57:04;10.50;;;4.47;;
21301;SDS011;10810;48.270;9.996;2023-02-21T08:59:33;12.87;;;5.07;;
21301;SDS011;10810;48.270;9.996;2023-02-21T09:02:03;10.77;;;4.27;;
21301;SDS011;10810;48.270;9.996;2023-02-21T09:04:50;12.20;;;4.40;;
21301;SDS011;10810;48.270;9.996;2023-02-21T09:07:20;13.50;;;4.20;;
21301;SDS011;10810;48.270;9.996;2023-02-21T09:09:48;10.37;;;3.83;;
21301;SDS011;10810;48.270;9.996;2023-02-21T09:12:16;10.40;;;4.07;;
21301;SDS011;10810;48.270;9.996;2023-02-21T09:14:43;9.57;;;3.73;;
21301;SDS011;10810;48.270;9.996;2023-02-21T09:17:11;12.27;;;4.10;;
21301;SDS011;10810;48.270;9.996;2023-02-21T09:19:40;10.00;;;3.87;;
21301;SDS011;10810;48.270;9.996;2023-02-21T09:22:11;12.87;;;3.40;;
21301;SDS011;10810;48.270;9.996;2023-02-21T09:24:43;10.97;;;4.30;;
21301;SDS011;10810;48.270;9.996;2023-02-21T09:27:14;9.70;;;3.97;;
21301;SDS011;10810;48.270;9.996;2023-02-21T09:29:45;10.73;;;4.07;;
21301;SDS011;10810;48.270;9.996;2023-02-21T09:32:13;7.80;;;3.30;;
21301;SDS011;10810;48.270;9.996;2023-02-21T09:34:41;7.20;;;3.30;;
21301;SDS011;10810;48.270;9.996;2023-02-21T09:37:10;6.53;;;3.03;;
21301;SDS011;10810;48.270;9.996;2023-02-21T09:39:45;8.77;;;3.60;;
21301;SDS011;10810;48.270;9.996;2023-02-21T09:42:19;10.67;;;3.67;;
21301;SDS011;10810;48.270;9.996;2023-02-21T09:44:52;8.13;;;3.40;;
21301;SDS011;10810;48.270;9.996;2023-02-21T09:47:30;9.40;;;3.97;;
21301;SDS011;10810;48.270;9.996;2023-02-21T09:50:03;11.80;;;4.00;;
21301;SDS011;10810;48.270;9.996;2023-02-21T09:52:39;9.40;;;4.00;;
21301;SDS011;10810;48.270;9.996;2023-02-21T09:55:24;8.50;;;3.70;;
21301;SDS011;10810;48.270;9.996;2023-02-21T09:57:54;10.33;;;3.83;;
21301;SDS011;10810;48.270;9.996;2023-02-21T10:00:26;9.57;;;3.97;;
21301;SDS011;10810;48.270;9.996;2023-02-21T10:03:02;7.63;;;3.43;;
21301;SDS011;10810;48.270;9.996;2023-02-21T10:05:52;9.83;;;3.60;;
21301;SDS011;10810;48.270;9.996;2023-02-21T10:08:25;10.47;;;4.07;;
21301;SDS011;10810;48.270;9.996;2023-02-21T10:11:13;8.50;;;3.57;;
21301;SDS011;10810;48.270;9.996;2023-02-21T10:13:53;6.87;;;3.17;;
21301;SDS011;10810;48.270;9.996;2023-02-21T10:16:31;8.93;;;3.33;;
21301;SDS011;10810;48.270;9.996;2023-02-21T10:19:05;8.73;;;3.97;;
21301;SDS011;10810;48.270;9.996;2023-02-21T10:21:43;10.03;;;3.50;;
21301;SDS011;10810;48.270;9.996;2023-02-21T10:24:28;11.50;;;4.00;;
21301;SDS011;10810;48.270;9.996;2023-02-21T10:30:15;9.93;;;3.97;;
21301;SDS011;10810;48.270;9.996;2023-02-21T10:33:02;9.50;;;3.80;;
21301;SDS011;10810;48.270;9.996;2023-02-21T10:35:36;11.03;;;3.73;;
21301;SDS011;10810;48.270;9.996;2023-02-21T10:38:05;10.07;;;3.67;;
21301;SDS011;10810;48.270;9.996;2023-02-21T10:40:37;7.80;;;3.30;;
21301;SDS011;10810;48.270;9.996;2023-02-21T10:43:16;8.80;;;3.93;;
21301;SDS011;10810;48.270;9.996;2023-02-21T10:45:50;8.73;;;3.67;;
21301;SDS011;10810;48.270;9.996;2023-02-21T10:48:35;7.87;;;3.80;;
21301;SDS011;10810;48.270;9.996;2023-02-21T10:51:21;9.37;;;3.83;;
21301;SDS011;10810;48.270;9.996;2023-02-21T10:54:15;9.93;;;3.90;;
21301;SDS011;10810;48.270;9.996;2023-02-21T10:56:43;9.53;;;4.33;;
21301;SDS011;10810;48.270;9.996;2023-02-21T10:59:12;15.73;;;5.30;;
21301;SDS011;10810;48.270;9.996;2023-02-21T11:01:46;13.47;;;4.57;;
21301;SDS011;10810;48.270;9.996;2023-02-21T11:04:31;9.70;;;4.47;;
21301;SDS011;10810;48.270;9.996;2023-02-21T11:07:07;11.70;;;3.73;;
21301;SDS011;10810;48.270;9.996;2023-02-21T11:09:45;8.80;;;3.83;;
21301;SDS011;10810;48.270;9.996;2023-02-21T11:12:18;8.93;;;3.50;;
21301;SDS011;10810;48.270;9.996;2023-02-21T11:18:01;11.37;;;3.23;;
21301;SDS011;10810;48.270;9.996;2023-02-21T11:20:32;8.03;;;3.33;;
21301;SDS011;10810;48.270;9.996;2023-02-21T11:23:01;9.90;;;4.20;;
21301;SDS011;10810;48.270;9.996;2023-02-21T11:25:44;9.83;;;3.27;;
21301;SDS011;10810;48.270;9.996;2023-02-21T11:28:38;9.03;;;3.63;;
21301;SDS011;10810;48.270;9.996;2023-02-21T11:31:16;6.30;;;3.17;;
21301;SDS011;10810;48.270;9.996;2023-02-21T11:33:51;7.37;;;3.20;;
21301;SDS011;10810;48.270;9.996;2023-02-21T11:36:46;6.67;;;2.43;;
21301;SDS011;10810;48.270;9.996;2023-02-21T11:39:15;6.73;;;2.53;;
21301;SDS011;10810;48.270;9.996;2023-02-21T11:41:52;8.10;;;3.10;;
21301;SDS011;10810;48.270;9.996;2023-02-21T11:44:29;6.57;;;2.57;;
21301;SDS011;10810;48.270;9.996;2023-02-21T11:47:11;6.60;;;2.60;;
21301;SDS011;10810;48.270;9.996;2023-02-21T11:49:46;5.93;;;2.57;;
21301;SDS011;10810;48.270;9.996;2023-02-21T11:52:36;6.70;;;2.80;;
21301;SDS011;10810;48.270;9.996;2023-02-21T11:55:17;5.97;;;2.30;;
21301;SDS011;10810;48.270;9.996;2023-02-21T11:57:49;6.43;;;2.50;;
21301;SDS011;10810;48.270;9.996;2023-02-21T12:00:32;5.40;;;2.27;;
21301;SDS011;10810;48.270;9.996;2023-02-21T12:03:39;7.83;;;3.10;;
21301;SDS011;10810;48.270;9.996;2023-02-21T12:06:20;5.63;;;2.77;;
21301;SDS011;10810;48.270;9.996;2023-02-21T12:09:08;6.87;;;2.83;;
21301;SDS011;10810;48.270;9.996;2023-02-21T12:11:50;7.43;;;3.13;;
21301;SDS011;10810;48.270;9.996;2023-02-21T12:14:32;5.63;;;2.47;;
21301;SDS011;10810;48.270;9.996;2023-02-21T12:17:11;6.80;;;2.80;;
21301;SDS011;10810;48.270;9.996;2023-02-21T12:23:01;5.43;;;2.77;;
21301;SDS011;10810;48.270;9.996;2023-02-21T12:25:41;8.63;;;2.90;;
21301;SDS011;10810;48.270;9.996;2023-02-21T12:28:23;7.60;;;2.43;;
21301;SDS011;10810;48.270;9.996;2023-02-21T12:31:10;7.30;;;2.40;;
21301;SDS011;10810;48.270;9.996;2023-02-21T12:33:48;6.57;;;2.33;;
21301;SDS011;10810;48.270;9.996;2023-02-21T12:39:22;7.13;;;2.93;;
21301;SDS011;10810;48.270;9.996;2023-02-21T12:42:11;6.90;;;2.83;;
21301;SDS011;10810;48.270;9.996;2023-02-21T12:44:55;7.70;;;2.80;;
21301;SDS011;10810;48.270;9.996;2023-02-21T12:48:00;5.90;;;2.60;;
21301;SDS011;10810;48.270;9.996;2023-02-21T12:50:57;5.33;;;2.60;;
21301;SDS011;10810;48.270;9.996;2023-02-21T12:53:36;5.23;;;2.17;;
21301;SDS011;10810;48.270;9.996;2023-02-21T12:56:09;5.57;;;2.57;;
21301;SDS011;10810;48.270;9.996;2023-02-21T12:59:17;6.63;;;2.53;;
21301;SDS011;10810;48.270;9.996;2023-02-21T13:02:11;5.67;;;2.53;;
21301;SDS011;10810;48.270;9.996;2023-02-21T13:05:02;4.67;;;2.10;;
21301;SDS011;10810;48.270;9.996;2023-02-21T13:07:41;5.13;;;2.57;;
21301;SDS011;10810;48.270;9.996;2023-02-21T13:10:23;5.23;;;2.50;;
21301;SDS011;10810;48.270;9.996;2023-02-21T13:12:57;4.37;;;2.20;;
21301;SDS011;10810;48.270;9.996;2023-02-21T13:15:41;7.00;;;2.47;;
21301;SDS011;10810;48.270;9.996;2023-02-21T13:18:39;5.53;;;2.17;;
21301;SDS011;10810;48.270;9.996;2023-02-21T13:21:22;6.20;;;2.47;;
21301;SDS011;10810;48.270;9.996;2023-02-21T13:23:59;4.17;;;2.73;;
21301;SDS011;10810;48.270;9.996;2023-02-21T13:27:15;3.30;;;1.73;;
21301;SDS011;10810;48.270;9.996;2023-02-21T13:30:11;5.13;;;2.00;;
21301;SDS011;10810;48.270;9.996;2023-02-21T13:33:19;4.83;;;2.00;;
21301;SDS011;10810;48.270;9.996;2023-02-21T13:36:01;5.27;;;2.30;;
21301;SDS011;10810;48.270;9.996;2023-02-21T13:39:01;5.07;;;2.53;;
21301;SDS011;10810;48.270;9.996;2023-02-21T13:41:47;4.57;;;2.23;;
21301;SDS011;10810;48.270;9.996;2023-02-21T13:44:22;4.97;;;2.30;;
21301;SDS011;10810;48.270;9.996;2023-02-21T13:47:27;4.30;;;2.10;;
21301;SDS011;10810;48.270;9.996;2023-02-21T13:59:31;3.83;;;1.90;;
21301;SDS011;10810;48.270;9.996;2023-02-21T14:02:31;6.13;;;2.50;;
21301;SDS011;10810;48.270;9.996;2023-02-21T14:05:08;3.03;;;1.70;;
21301;SDS011;10810;48.270;9.996;2023-02-21T14:07:57;4.67;;;1.80;;
21301;SDS011;10810;48.270;9.996;2023-02-21T14:10:37;4.37;;;2.00;;
21301;SDS011;10810;48.270;9.996;2023-02-21T14:16:15;3.30;;;1.90;;
21301;SDS011;10810;48.270;9.996;2023-02-21T14:18:53;8.83;;;2.40;;
21301;SDS011;10810;48.270;9.996;2023-02-21T14:21:38;3.50;;;1.83;;
21301;SDS011;10810;48.270;9.996;2023-02-21T14:24:33;4.23;;;1.90;;
21301;SDS011;10810;48.270;9.996;2023-02-21T14:32:59;3.10;;;1.63;;
21301;SDS011;10810;48.270;9.996;2023-02-21T14:35:46;2.90;;;1.60;;
21301;SDS011;10810;48.270;9.996;2023-02-21T14:38:22;4.43;;;2.33;;
21301;SDS011;10810;48.270;9.996;2023-02-21T14:40:55;4.17;;;1.70;;
21301;SDS011;10810;48.270;9.996;2023-02-21T14:43:40;3.63;;;1.70;;
21301;SDS011;10810;48.270;9.996;2023-02-21T14:49:36;5.07;;;1.70;;
21301;SDS011;10810;48.270;9.996;2023-02-21T14:52:23;5.03;;;1.77;;
21301;SDS011;10810;48.270;9.996;2023-02-21T14:58:03;3.90;;;1.80;;
21301;SDS011;10810;48.270;9.996;2023-02-21T15:00:52;4.37;;;1.77;;
21301;SDS011;10810;48.270;9.996;2023-02-21T15:03:28;3.90;;;1.93;;
21301;SDS011;10810;48.270;9.996;2023-02-21T15:06:01;3.80;;;2.10;;
21301;SDS011;10810;48.270;9.996;2023-02-21T15:08:41;3.50;;;1.70;;
21301;SDS011;10810;48.270;9.996;2023-02-21T15:11:46;3.37;;;1.60;;
21301;SDS011;10810;48.270;9.996;2023-02-21T15:14:27;4.37;;;2.20;;
21301;SDS011;10810;48.270;9.996;2023-02-21T15:17:10;3.53;;;1.80;;
21301;SDS011;10810;48.270;9.996;2023-02-21T15:19:59;3.90;;;1.80;;
21301;SDS011;10810;48.270;9.996;2023-02-21T15:22:42;4.73;;;1.97;;
21301;SDS011;10810;48.270;9.996;2023-02-21T15:25:12;3.63;;;1.70;;
21301;SDS011;10810;48.270;9.996;2023-02-21T15:33:56;7.60;;;2.00;;
21301;SDS011;10810;48.270;9.996;2023-02-21T15:36:30;4.60;;;2.20;;
21301;SDS011;10810;48.270;9.996;2023-02-21T15:39:01;4.87;;;1.87;;
21301;SDS011;10810;48.270;9.996;2023-02-21T15:41:32;4.70;;;2.07;;
21301;SDS011;10810;48.270;9.996;2023-02-21T15:44:15;5.67;;;2.40;;
21301;SDS011;10810;48.270;9.996;2023-02-21T15:47:00;4.50;;;1.90;;
21301;SDS011;10810;48.270;9.996;2023-02-21T15:50:07;4.77;;;2.10;;
21301;SDS011;10810;48.270;9.996;2023-02-21T15:52:56;5.43;;;2.47;;
21301;SDS011;10810;48.270;9.996;2023-02-21T15:55:44;7.20;;;2.10;;
21301;SDS011;10810;48.270;9.996;2023-02-21T15:58:30;4.97;;;1.97;;
21301;SDS011;10810;48.270;9.996;2023-02-21T16:01:41;4.50;;;1.87;;
21301;SDS011;10810;48.270;9.996;2023-02-21T16:04:23;3.30;;;1.67;;
21301;SDS011;10810;48.270;9.996;2023-02-21T16:07:12;6.90;;;1.70;;
21301;SDS011;10810;48.270;9.996;2023-02-21T16:10:05;3.57;;;1.63;;
21301;SDS011;10810;48.270;9.996;2023-02-21T16:12:53;4.50;;;1.90;;
21301;SDS011;10810;48.270;9.996;2023-02-21T16:15:24;3.30;;;1.80;;
21301;SDS011;10810;48.270;9.996;2023-02-21T16:18:08;5.20;;;2.07;;
21301;SDS011;10810;48.270;9.996;2023-02-21T16:20:40;4.03;;;1.80;;
21301;SDS011;10810;48.270;9.996;2023-02-21T16:23:24;4.87;;;1.83;;
21301;SDS011;10810;48.270;9.996;2023-02-21T16:25:57;4.20;;;2.10;;
21301;SDS011;10810;48.270;9.996;2023-02-21T16:28:58;5.67;;;2.03;;
21301;SDS011;10810;48.270;9.996;2023-02-21T16:31:33;8.97;;;2.70;;
21301;SDS011;10810;48.270;9.996;2023-02-21T16:34:16;5.20;;;2.10;;
21301;SDS011;10810;48.270;9.996;2023-02-21T16:53:58;7.40;;;1.67;;
21301;SDS011;10810;48.270;9.996;2023-02-21T16:56:53;2.93;;;1.50;;
21301;SDS011;10810;48.270;9.996;2023-02-21T16:59:57;3.60;;;1.47;;
21301;SDS011;10810;48.270;9.996;2023-02-21T17:13:37;2.93;;;1.40;;
21301;SDS011;10810;48.270;9.996;2023-02-21T17:15:35;3.43;;;1.67;;
21301;SDS011;10810;48.270;9.996;2023-02-21T17:18:09;3.00;;;1.53;;
21301;SDS011;10810;48.270;9.996;2023-02-21T17:24:26;4.73;;;2.27;;
21301;SDS011;10810;48.270;9.996;2023-02-21T17:40:05;8.43;;;2.80;;
21301;SDS011;10810;48.270;9.996;2023-02-21T17:42:48;12.03;;;3.63;;
21301;SDS011;10810;48.270;9.996;2023-02-21T17:45:54;10.80;;;3.57;;
21301;SDS011;10810;48.270;9.996;2023-02-21T17:48:36;11.37;;;3.87;;